首页
METAR-TAF:

METAR-TAF

机场 :

Cape Dorset, 努那武特, 加拿大

纬度: 64-13N, 经度: 076-32W, 海拔: 51米

当前天气观测

该预报发布于37分钟前的16:00 UTC
风速9节,风向
温度 13°C
湿度 58%
气压 1015 hPa
能見度: 14.5公里
天空无云

METAR: CYTE 211600Z AUTO 01009KT 9SM CLR 13/05 A2998 RMK SLP156

时间: 12:37 (16:37 UTC)

预报

该预报发布于3小时和43分钟前的12:54 UTC
预报有效从21日的 13点(UTC)到 22日的 01点(UTC)
风速10节,风向北转西北
能見度: 10公里
少量云层高于2000英尺
多云层高于4000英尺
短暂存在
从 21日的 13点(UTC)到 22日的 01点(UTC)
多云层高于2000英尺

TAF: CYTE 211254Z 2113/2201 34010KT P6SM FEW020 BKN040 TEMPO 2113/2201 BKN020 RMK FCST BASED ON AUTO OBS. NXT FCST BY 211900Z

超过4000个机场的气象观测和天气预报(METAR&TAF报告)。

可查询的气象台以黄色和红色小点在地图上表示。

将鼠标移到小点上方,可查看气象台名称。

然后点击查看天气观测和预报。

如需切换地图:点击带黑十字的绿色按钮放大地图;点击带横线的绿色按钮缩小地图;或者点击绿色箭头查看邻近地区的地图。


METAR-TAF: